Time;durP1;ratioP1;P1;durP2;ratioP2;P2;SDS_P1;SDS_P2;PMS_P1;PMS_P2;Temp;Humidity;BMP_temperature;BMP_pressure;BME280_temperature;BME280_humidity;BME280_pressure;Samples;Min_cycle;Max_cycle;Signal;HPM_P1;HPM_P2
2021/05/21 00:01:42;;;;;;;4.35;4.00;;;;;;;11.88;68.64;100527.13;3532513;40;20404;-60
2021/05/21 00:04:09;;;;;;;3.83;3.42;;;;;;;11.79;69.21;100527.78;3532579;40;20047;-57
2021/05/21 00:06:36;;;;;;;3.80;3.47;;;;;;;11.93;69.03;100523.78;3533008;40;20082;-57
2021/05/21 00:09:04;;;;;;;6.75;3.78;;;;;;;11.72;69.85;100520.78;3533157;40;20083;-55
2021/05/21 00:11:32;;;;;;;4.93;3.70;;;;;;;11.86;69.01;100519.38;3532900;40;20131;-57
2021/05/21 00:13:59;;;;;;;4.38;3.97;;;;;;;11.99;69.01;100515.31;3532973;40;20357;-57
2021/05/21 00:16:26;;;;;;;5.05;4.55;;;;;;;11.84;69.49;100520.19;3532753;40;20058;-58
2021/05/21 00:18:53;;;;;;;4.78;3.80;;;;;;;11.90;69.74;100510.03;3532650;40;20061;-57
2021/05/21 00:21:20;;;;;;;4.22;3.83;;;;;;;11.88;69.80;100511.72;3533148;40;20130;-59
2021/05/21 00:23:47;;;;;;;3.80;3.50;;;;;;;11.91;69.47;100510.03;3533161;40;20061;-58
2021/05/21 00:26:14;;;;;;;4.22;3.90;;;;;;;11.73;70.46;100502.84;3532936;40;20073;-59
2021/05/21 00:28:41;;;;;;;6.22;3.67;;;;;;;11.78;70.14;100505.50;3533276;40;20081;-57
2021/05/21 00:31:08;;;;;;;3.80;3.35;;;;;;;11.84;70.76;100505.66;3532964;40;20071;-59
2021/05/21 00:33:35;;;;;;;3.83;3.50;;;;;;;11.94;70.03;100502.41;3532850;40;20050;-56
2021/05/21 00:36:03;;;;;;;3.92;3.58;;;;;;;11.98;70.16;100500.75;3532888;40;20080;-60
2021/05/21 00:38:30;;;;;;;3.67;3.38;;;;;;;11.70;71.54;100489.13;3532328;40;20086;-59
2021/05/21 00:40:59;;;;;;;4.20;3.80;;;;;;;11.82;71.29;100489.34;3532914;40;20105;-59
2021/05/21 00:43:27;;;;;;;4.00;3.60;;;;;;;11.93;70.90;100481.88;3532767;40;20054;-57
2021/05/21 00:45:53;;;;;;;3.55;3.20;;;;;;;11.79;71.72;100479.03;3532545;40;20055;-60
2021/05/21 00:48:21;;;;;;;3.95;3.50;;;;;;;11.99;70.85;100474.25;3532409;40;20085;-57
2021/05/21 00:50:49;;;;;;;3.47;3.17;;;;;;;11.81;71.61;100474.78;3532991;40;20986;-58
2021/05/21 00:53:21;;;;;;;3.85;3.47;;;;;;;11.57;72.55;100471.78;3533097;40;20466;-58
2021/05/21 00:55:49;;;;;;;4.20;3.75;;;;;;;11.52;73.66;100470.84;3532896;40;20110;-59
2021/05/21 00:58:21;;;;;;;4.35;3.80;;;;;;;11.63;73.46;100469.31;3532607;40;20077;-57
2021/05/21 01:01:07;;;;;;;3.72;3.40;;;;;;;11.87;71.87;100463.78;3532798;40;20038;-59
2021/05/21 01:03:39;;;;;;;5.05;3.83;;;;;;;11.83;72.69;100468.03;3532631;40;20043;-57
2021/05/21 01:06:06;;;;;;;3.80;3.50;;;;;;;11.84;72.51;100458.63;3532675;40;20095;-56
2021/05/21 01:08:37;;;;;;;4.32;3.92;;;;;;;11.56;73.29;100458.09;3532863;40;20099;-60
2021/05/21 01:11:07;;;;;;;4.93;4.18;;;;;;;11.54;73.64;100444.38;3532592;40;20066;-58
2021/05/21 01:13:34;;;;;;;3.97;3.67;;;;;;;11.62;72.97;100441.97;3532551;40;20062;-59
2021/05/21 01:16:02;;;;;;;4.03;3.70;;;;;;;11.69;73.39;100442.09;3532726;40;20069;-60
2021/05/21 01:18:29;;;;;;;4.60;3.42;;;;;;;11.59;73.53;100439.31;3532023;40;20053;-58
2021/05/21 01:20:57;;;;;;;4.22;3.85;;;;;;;11.65;73.46;100429.19;3533024;40;20062;-59
2021/05/21 01:23:25;;;;;;;4.55;4.15;;;;;;;11.69;73.54;100429.28;3533126;40;20744;-59
2021/05/21 01:25:52;;;;;;;4.25;3.85;;;;;;;11.66;73.60;100424.09;3533285;40;20136;-58
2021/05/21 01:28:19;;;;;;;4.47;3.97;;;;;;;11.65;73.19;100422.38;3533113;40;20070;-58
2021/05/21 01:30:47;;;;;;;4.30;3.90;;;;;;;11.55;73.55;100409.34;3533126;40;20442;-58
2021/05/21 01:33:14;;;;;;;3.85;3.55;;;;;;;11.51;74.31;100408.44;3533155;40;20094;-60
2021/05/21 01:35:42;;;;;;;4.10;3.70;;;;;;;11.67;73.77;100402.72;3533176;40;20057;-60
2021/05/21 01:38:12;;;;;;;6.25;3.88;;;;;;;11.63;73.37;100402.63;3533181;40;20165;-58
2021/05/21 01:40:42;;;;;;;4.00;3.60;;;;;;;11.53;74.02;100409.31;3529668;40;20061;-60
2021/05/21 01:43:11;;;;;;;4.57;3.50;;;;;;;11.57;73.86;100390.59;3533061;40;20055;-60
2021/05/21 01:45:41;;;;;;;4.68;3.70;;;;;;;11.51;74.71;100392.16;3529276;40;20061;-60
2021/05/21 01:48:11;;;;;;;5.15;3.60;;;;;;;11.66;73.82;100392.44;3532019;40;20356;-57
2021/05/21 01:50:39;;;;;;;3.70;3.35;;;;;;;11.56;73.77;100382.88;3528776;40;20057;-58
2021/05/21 01:53:06;;;;;;;5.20;3.78;;;;;;;11.51;74.91;100385.38;3532295;40;20074;-56
2021/05/21 01:55:33;;;;;;;3.95;3.65;;;;;;;11.64;73.72;100383.84;3531930;40;20130;-60
2021/05/21 01:58:00;;;;;;;4.20;3.58;;;;;;;11.34;74.97;100379.06;3532859;40;20091;-60
2021/05/21 02:00:27;;;;;;;4.20;3.80;;;;;;;11.55;74.24;100376.84;3532605;40;20094;-60
2021/05/21 02:02:54;;;;;;;4.00;3.58;;;;;;;11.53;74.54;100373.41;3532387;40;20051;-58
2021/05/21 02:05:22;;;;;;;3.42;3.13;;;;;;;11.43;75.12;100371.53;3532442;40;20070;-59
2021/05/21 02:07:49;;;;;;;4.38;3.67;;;;;;;11.39;74.97;100370.63;3532601;40;20078;-61
2021/05/21 02:10:16;;;;;;;3.65;3.35;;;;;;;11.44;75.35;100368.13;3532161;40;20821;-59
2021/05/21 02:12:45;;;;;;;5.07;4.40;;;;;;;11.33;76.14;100367.97;3532460;40;20126;-61
2021/05/21 02:15:12;;;;;;;4.22;3.45;;;;;;;11.38;75.09;100355.22;3532388;40;20110;-60
2021/05/21 02:17:39;;;;;;;3.45;3.13;;;;;;;11.39;75.37;100350.13;3529261;40;20097;-60
2021/05/21 02:20:08;;;;;;;5.18;3.47;;;;;;;11.52;74.58;100351.19;3532268;40;20356;-60
2021/05/21 02:22:39;;;;;;;3.92;3.28;;;;;;;11.46;75.28;100344.25;3532358;40;20054;-59
2021/05/21 02:25:08;;;;;;;3.47;3.17;;;;;;;11.36;75.97;100337.22;3532198;40;20152;-59
2021/05/21 02:27:35;;;;;;;3.42;3.15;;;;;;;11.48;75.41;100339.16;3532136;40;20351;-61
2021/05/21 02:30:04;;;;;;;3.55;3.25;;;;;;;11.56;74.27;100327.31;3531992;40;20073;-58
2021/05/21 02:32:31;;;;;;;4.30;2.67;;;;;;;11.62;74.20;100334.25;3531303;40;20077;-60
2021/05/21 02:34:58;;;;;;;3.47;3.17;;;;;;;11.42;74.97;100319.41;3532101;40;20090;-58
2021/05/21 02:37:25;;;;;;;4.10;2.85;;;;;;;11.56;74.23;100313.66;3532084;40;20427;-60
2021/05/21 02:39:52;;;;;;;2.95;2.70;;;;;;;11.38;75.29;100309.94;3531988;40;20759;-55
2021/05/21 02:42:19;;;;;;;5.35;2.90;;;;;;;11.53;74.97;100314.44;3531877;40;20114;-60
2021/05/21 02:44:46;;;;;;;6.32;2.88;;;;;;;11.67;73.87;100302.69;3532101;40;20065;-60
2021/05/21 02:47:13;;;;;;;3.10;2.80;;;;;;;11.70;73.64;100305.31;3531966;40;20051;-57
2021/05/21 02:49:41;;;;;;;3.55;3.25;;;;;;;11.53;74.54;100293.06;3531947;40;20058;-58
2021/05/21 02:52:08;;;;;;;3.08;2.75;;;;;;;11.66;74.27;100292.41;3531695;40;20094;-61
2021/05/21 02:54:35;;;;;;;5.90;3.17;;;;;;;11.58;74.57;100294.00;3531839;40;20062;-60
2021/05/21 02:57:02;;;;;;;2.83;2.63;;;;;;;11.57;75.04;100290.56;3531602;40;20082;-59
2021/05/21 02:59:29;;;;;;;3.35;3.05;;;;;;;11.62;74.83;100288.94;3531556;40;20171;-59
2021/05/21 03:01:56;;;;;;;4.13;2.58;;;;;;;11.62;74.80;100281.25;3532077;40;20058;-59
2021/05/21 03:04:23;;;;;;;3.33;2.83;;;;;;;11.65;74.68;100286.44;3531952;40;20598;-58
2021/05/21 03:06:50;;;;;;;4.10;2.72;;;;;;;11.58;74.26;100283.75;3531922;40;20098;-60
2021/05/21 03:09:17;;;;;;;4.57;3.38;;;;;;;11.58;74.92;100279.47;3531738;40;20067;-59
2021/05/21 03:11:45;;;;;;;4.25;3.22;;;;;;;11.42;76.16;100280.09;3531989;40;20495;-60
2021/05/21 03:14:12;;;;;;;3.40;3.13;;;;;;;11.42;76.28;100278.38;3531884;40;20074;-58
2021/05/21 03:16:39;;;;;;;3.53;3.22;;;;;;;11.43;75.59;100276.69;3528853;40;20051;-60
2021/05/21 03:19:06;;;;;;;4.55;2.90;;;;;;;11.67;74.81;100271.91;3531660;40;20614;-63
2021/05/21 03:21:33;;;;;;;3.13;2.90;;;;;;;11.41;75.53;100270.66;3531684;40;20752;-61
2021/05/21 03:24:00;;;;;;;3.53;3.22;;;;;;;11.74;74.04;100275.44;3531866;40;20072;-58
2021/05/21 03:26:27;;;;;;;4.43;3.67;;;;;;;11.42;75.67;100269.84;3531779;40;20055;-59
2021/05/21 03:28:54;;;;;;;3.35;3.13;;;;;;;11.71;74.59;100272.81;3531975;40;20147;-60
2021/05/21 03:31:21;;;;;;;3.97;3.40;;;;;;;11.69;74.53;100269.34;3531557;40;20194;-60
2021/05/21 03:33:49;;;;;;;3.47;3.05;;;;;;;11.73;74.04;100268.56;3531722;40;20087;-60
2021/05/21 03:36:16;;;;;;;3.88;3.33;;;;;;;11.53;74.78;100259.72;3531231;40;20779;-60
2021/05/21 03:38:43;;;;;;;3.30;2.88;;;;;;;11.58;74.99;100258.09;3531419;40;20083;-59
2021/05/21 03:41:11;;;;;;;3.80;3.03;;;;;;;11.37;75.97;100256.06;3531498;40;20087;-60
2021/05/21 03:43:38;;;;;;;4.63;3.00;;;;;;;11.52;75.62;100251.19;3531618;40;20082;-56
2021/05/21 03:46:05;;;;;;;3.70;3.10;;;;;;;11.75;74.25;100240.41;3531155;40;20091;-59
2021/05/21 03:48:32;;;;;;;3.58;2.92;;;;;;;11.68;74.86;100249.69;3531609;40;20054;-59
2021/05/21 03:50:59;;;;;;;3.72;3.33;;;;;;;11.81;74.48;100240.47;3532084;40;20338;-60
2021/05/21 03:53:26;;;;;;;3.83;3.25;;;;;;;11.78;74.62;100238.72;3531535;40;20087;-57
2021/05/21 03:55:53;;;;;;;5.15;3.70;;;;;;;11.91;74.07;100242.34;3531551;40;20083;-58
2021/05/21 03:58:20;;;;;;;5.55;3.95;;;;;;;11.75;75.11;100243.81;3531596;40;20086;-60
2021/05/21 04:00:47;;;;;;;3.95;3.65;;;;;;;11.75;74.50;100246.38;3531736;40;20732;-60
2021/05/21 04:03:14;;;;;;;3.92;3.15;;;;;;;11.61;75.44;100250.47;3531601;40;20062;-61
2021/05/21 04:05:41;;;;;;;4.63;3.20;;;;;;;11.66;76.09;100248.81;3531336;40;20099;-56
2021/05/21 04:08:08;;;;;;;3.80;3.42;;;;;;;11.81;74.91;100243.03;3531178;40;20198;-60
2021/05/21 04:10:36;;;;;;;4.47;3.50;;;;;;;11.86;74.22;100239.72;3531202;40;20083;-61
2021/05/21 04:13:04;;;;;;;3.70;2.80;;;;;;;11.68;75.07;100240.28;3531440;40;20058;-60
2021/05/21 04:15:31;;;;;;;3.40;3.03;;;;;;;11.63;75.57;100238.50;3531237;40;20082;-59
2021/05/21 04:17:58;;;;;;;3.22;2.97;;;;;;;11.59;76.18;100239.31;3531831;40;20107;-60
2021/05/21 04:20:25;;;;;;;3.55;3.25;;;;;;;11.46;75.76;100234.03;3531627;40;20448;-60
2021/05/21 04:22:52;;;;;;;4.22;3.20;;;;;;;11.45;76.17;100236.53;3531420;40;20059;-58
2021/05/21 04:25:19;;;;;;;3.28;2.97;;;;;;;11.46;76.63;100236.59;3531538;40;20085;-60
2021/05/21 04:27:46;;;;;;;4.25;3.25;;;;;;;11.42;76.77;100228.81;3531232;40;20116;-59
2021/05/21 04:30:14;;;;;;;3.50;3.00;;;;;;;11.50;76.63;100224.63;3531033;40;20103;-56
2021/05/21 04:32:42;;;;;;;3.50;2.72;;;;;;;11.52;76.21;100224.69;3531239;40;20089;-60
2021/05/21 04:35:09;;;;;;;3.38;3.08;;;;;;;11.47;77.10;100214.38;3531171;40;20420;-54
2021/05/21 04:37:36;;;;;;;5.00;3.47;;;;;;;11.51;76.81;100211.00;3530924;40;20074;-57
2021/05/21 04:40:05;;;;;;;3.75;3.45;;;;;;;11.57;76.86;100202.53;3531124;40;20062;-55
2021/05/21 04:42:43;;;;;;;3.00;2.80;;;;;;;11.79;75.50;100201.13;3528365;40;20051;-56
2021/05/21 04:45:11;;;;;;;4.63;3.15;;;;;;;11.84;75.06;100196.94;3531215;40;20161;-57
2021/05/21 04:47:38;;;;;;;3.50;3.20;;;;;;;12.06;73.74;100192.91;3531536;40;20071;-57
2021/05/21 04:50:05;;;;;;;4.10;3.05;;;;;;;12.11;73.43;100193.81;3532503;40;20055;-56
2021/05/21 04:52:33;;;;;;;3.30;3.00;;;;;;;11.98;74.04;100188.56;3533001;40;20074;-55
2021/05/21 04:55:00;;;;;;;3.20;3.00;;;;;;;12.14;73.28;100187.00;3532835;40;20106;-58
2021/05/21 04:57:27;;;;;;;3.05;2.63;;;;;;;12.14;72.85;100179.31;3532777;40;20699;-56
2021/05/21 04:59:54;;;;;;;3.25;3.00;;;;;;;12.20;72.62;100181.09;3532724;40;20065;-57
2021/05/21 05:02:21;;;;;;;3.22;2.55;;;;;;;12.24;72.31;100175.13;3532523;40;20057;-58
2021/05/21 05:04:49;;;;;;;3.15;2.83;;;;;;;12.24;72.85;100175.13;3534019;40;20043;-55
2021/05/21 05:07:16;;;;;;;4.53;3.10;;;;;;;12.44;72.09;100165.09;3532574;40;20063;-53
2021/05/21 05:09:43;;;;;;;2.42;2.15;;;;;;;12.52;72.22;100160.00;3532728;40;20054;-57
2021/05/21 05:12:10;;;;;;;3.22;2.63;;;;;;;12.56;71.86;100166.91;3572019;22;20323;-51
2021/05/21 05:14:37;;;;;;;3.47;3.00;;;;;;;12.64;71.20;100166.13;3532957;40;20063;-51
2021/05/21 05:17:04;;;;;;;4.00;2.50;;;;;;;12.79;70.87;100152.53;3532776;40;20334;-55
2021/05/21 05:19:31;;;;;;;2.67;2.47;;;;;;;12.89;70.46;100151.75;3532937;40;20317;-52
2021/05/21 05:21:58;;;;;;;6.18;2.70;;;;;;;12.93;69.98;100153.50;3533295;40;20751;-54
2021/05/21 05:24:33;;;;;;;3.00;2.67;;;;;;;13.03;69.90;100144.16;3531595;40;20062;-55
2021/05/21 05:27:00;;;;;;;4.72;2.55;;;;;;;13.12;68.63;100136.50;3530623;40;20039;-51
2021/05/21 05:29:37;;;;;;;4.60;2.97;;;;;;;13.18;67.95;100145.97;3533101;40;20046;-52
2021/05/21 05:32:04;;;;;;;2.63;2.40;;;;;;;13.30;68.61;100128.06;3532603;40;20059;-53
2021/05/21 05:34:32;;;;;;;2.80;2.50;;;;;;;13.32;67.16;100121.25;3532330;40;20862;-53
2021/05/21 05:36:59;;;;;;;5.10;2.60;;;;;;;13.46;67.37;100132.44;3532986;40;20047;-52
2021/05/21 05:39:26;;;;;;;3.50;2.35;;;;;;;13.70;67.52;100130.84;3532885;40;20083;-51
2021/05/21 05:41:53;;;;;;;3.15;2.67;;;;;;;13.71;65.51;100122.25;3532715;40;20408;-51
2021/05/21 05:44:20;;;;;;;3.22;2.05;;;;;;;13.83;66.70;100117.16;3532759;40;20074;-55
2021/05/21 05:46:48;;;;;;;3.50;2.00;;;;;;;13.77;65.23;100111.97;3532769;40;20059;-52
2021/05/21 05:49:15;;;;;;;3.65;1.70;;;;;;;14.05;64.62;100112.06;3532517;40;20420;-56
2021/05/21 05:51:42;;;;;;;2.53;1.90;;;;;;;14.11;64.23;100110.38;3532634;40;20042;-48
2021/05/21 05:54:09;;;;;;;2.20;2.00;;;;;;;14.17;64.61;100107.78;3532303;40;20096;-54
2021/05/21 05:56:36;;;;;;;2.63;2.42;;;;;;;14.25;62.92;100116.41;3532505;40;20043;-56
2021/05/21 05:59:05;;;;;;;2.60;1.67;;;;;;;14.39;62.73;100105.25;3532456;40;20058;-54
2021/05/21 06:01:32;;;;;;;2.40;1.90;;;;;;;14.47;62.20;100094.09;3532507;40;20055;-52
2021/05/21 06:04:02;;;;;;;2.45;1.80;;;;;;;14.56;62.13;100095.84;3532946;40;20428;-55
2021/05/21 06:06:31;;;;;;;1.70;1.60;;;;;;;14.63;61.28;100079.53;3532024;40;20140;-51
2021/05/21 06:08:58;;;;;;;3.92;1.92;;;;;;;14.86;60.74;100084.66;3533197;40;20408;-54
2021/05/21 06:11:26;;;;;;;2.22;2.03;;;;;;;15.22;60.81;100085.44;3532547;40;20073;-51
2021/05/21 06:13:54;;;;;;;1.90;1.70;;;;;;;15.40;60.24;100084.53;3532437;40;20074;-49
2021/05/21 06:16:21;;;;;;;3.08;1.63;;;;;;;15.29;58.70;100080.22;3532153;40;20120;-51
2021/05/21 06:18:48;;;;;;;2.60;1.80;;;;;;;15.32;58.65;100065.63;3532509;40;20046;-49
2021/05/21 06:21:16;;;;;;;1.70;1.60;;;;;;;15.40;58.01;100059.56;3532181;40;20075;-53
2021/05/21 06:23:45;;;;;;;2.97;1.55;;;;;;;15.63;57.04;100068.94;3532256;40;20046;-53
2021/05/21 06:28:46;;;;;;;1.77;1.20;;;;;;;15.89;55.05;100061.91;3529507;40;20113;-51
2021/05/21 06:31:16;;;;;;;2.58;1.38;;;;;;;16.31;54.42;100054.72;3532420;40;20070;-54
2021/05/21 06:33:44;;;;;;;1.73;1.02;;;;;;;16.55;53.67;100051.09;3522763;40;20043;-52
2021/05/21 06:36:11;;;;;;;2.28;1.13;;;;;;;16.79;51.20;100047.47;3532406;40;20737;-56
2021/05/21 06:38:39;;;;;;;4.55;1.20;;;;;;;16.69;51.91;100045.81;3529238;40;20050;-54
2021/05/21 06:41:10;;;;;;;1.40;1.30;;;;;;;16.65;51.41;100047.56;3532388;40;20091;-53
2021/05/21 06:43:37;;;;;;;1.70;1.40;;;;;;;16.70;51.63;100043.19;3532223;40;20149;-52
2021/05/21 06:46:04;;;;;;;2.53;1.30;;;;;;;16.99;51.77;100034.31;3532353;40;20093;-56
2021/05/21 06:48:32;;;;;;;2.22;1.23;;;;;;;16.87;51.16;100029.25;3532444;40;20043;-51
2021/05/21 06:51:02;;;;;;;4.72;1.13;;;;;;;17.20;50.75;100030.63;3532528;40;20059;-53
2021/05/21 06:53:30;;;;;;;1.20;1.00;;;;;;;17.25;50.33;100018.50;3532094;40;20051;-52
2021/05/21 06:55:57;;;;;;;1.88;1.23;;;;;;;17.38;49.35;100024.34;3532482;40;20069;-55
2021/05/21 06:58:26;;;;;;;1.25;1.08;;;;;;;17.36;48.68;100019.19;3531989;40;20122;-51
2021/05/21 07:00:56;;;;;;;3.47;1.05;;;;;;;17.60;48.48;100012.81;3533583;40;20050;-49
2021/05/21 07:03:28;;;;;;;1.42;1.05;;;;;;;17.73;48.39;100013.53;3532392;40;20046;-55
2021/05/21 07:05:56;;;;;;;2.25;1.17;;;;;;;17.47;49.00;100008.69;3533665;40;20055;-54
2021/05/21 07:08:26;;;;;;;1.85;1.00;;;;;;;17.04;49.59;100007.50;3532424;40;20088;-50
2021/05/21 07:10:53;;;;;;;1.30;1.20;;;;;;;17.16;49.16;99993.56;3532221;40;20190;-54
2021/05/21 07:13:21;;;;;;;7.50;1.10;;;;;;;17.45;48.65;99998.38;3532504;40;20430;-52
2021/05/21 07:15:49;;;;;;;1.98;0.90;;;;;;;17.49;48.81;99988.84;3532459;40;20058;-55
2021/05/21 07:18:16;;;;;;;2.03;1.00;;;;;;;17.52;48.17;99979.31;3532156;40;20125;-52
2021/05/21 07:20:46;;;;;;;4.13;1.10;;;;;;;17.74;47.95;99973.81;3532416;40;20078;-53
2021/05/21 07:23:15;;;;;;;3.03;1.40;;;;;;;18.10;47.55;99984.50;3532303;40;20191;-55
2021/05/21 07:25:42;;;;;;;4.00;1.30;;;;;;;17.54;47.90;99974.94;3532430;40;20065;-55
2021/05/21 07:28:10;;;;;;;3.17;1.17;;;;;;;17.84;48.29;99969.34;3532033;40;20061;-54
2021/05/21 07:30:37;;;;;;;1.98;1.10;;;;;;;18.03;47.43;99973.38;3531989;40;20430;-55
2021/05/21 07:33:05;;;;;;;2.30;1.00;;;;;;;18.49;46.66;99980.38;3527906;40;20142;-54
2021/05/21 07:35:33;;;;;;;2.50;1.05;;;;;;;18.58;45.35;99967.25;3529312;40;20097;-53
2021/05/21 07:38:00;;;;;;;2.80;0.90;;;;;;;18.40;45.49;99970.16;3532007;40;20058;-53
2021/05/21 07:40:27;;;;;;;1.23;0.95;;;;;;;18.25;45.16;99946.19;3532056;40;20379;-50
2021/05/21 07:42:54;;;;;;;2.85;1.27;;;;;;;18.35;44.49;99933.97;3532229;40;20062;-52
2021/05/21 07:45:22;;;;;;;2.45;0.90;;;;;;;18.18;45.75;99939.44;3532416;40;20054;-51
2021/05/21 07:47:49;;;;;;;1.88;0.88;;;;;;;18.39;45.64;99943.34;3532172;40;20059;-54
2021/05/21 07:50:17;;;;;;;2.72;0.90;;;;;;;19.03;44.90;99930.91;3532202;40;20059;-54
2021/05/21 07:52:44;;;;;;;1.92;1.00;;;;;;;19.06;43.48;99930.84;3532794;40;20046;-55
2021/05/21 07:55:12;;;;;;;1.50;0.73;;;;;;;18.86;43.82;99922.59;3532554;40;20057;-56
2021/05/21 07:57:39;;;;;;;4.13;1.08;;;;;;;18.73;44.26;99919.44;3526622;40;20051;-55
2021/05/21 08:00:09;;;;;;;1.20;0.80;;;;;;;18.21;45.44;99904.81;3529868;40;20074;-54
2021/05/21 08:02:37;;;;;;;2.83;1.10;;;;;;;18.12;45.85;99900.69;3532237;40;20109;-52
2021/05/21 08:05:06;;;;;;;2.00;0.70;;;;;;;18.13;45.90;99893.75;3532870;40;20058;-53
2021/05/21 08:07:33;;;;;;;1.92;0.77;;;;;;;18.30;46.27;99894.28;3531750;40;20086;-57
2021/05/21 08:10:02;;;;;;;1.20;0.70;;;;;;;18.55;45.47;99892.94;3532233;40;20455;-55
2021/05/21 08:12:29;;;;;;;5.00;1.10;;;;;;;18.96;44.00;99887.81;3532013;40;20063;-51
2021/05/21 08:14:56;;;;;;;4.15;0.98;;;;;;;19.33;43.47;99886.09;3531814;40;20066;-50
2021/05/21 08:17:23;;;;;;;1.50;0.70;;;;;;;19.97;40.90;99878.53;3528667;40;20063;-51
2021/05/21 08:20:08;;;;;;;1.77;0.70;;;;;;;19.97;41.14;99875.91;3528093;40;20062;-51
2021/05/21 08:22:35;;;;;;;1.58;1.00;;;;;;;19.41;40.62;99866.88;3531179;40;20409;-54
2021/05/21 08:25:04;;;;;;;1.95;0.77;;;;;;;19.04;42.28;99857.34;3533306;40;20065;-51
2021/05/21 08:27:31;;;;;;;2.30;0.82;;;;;;;19.06;43.21;99851.25;3533416;40;20089;-54
2021/05/21 08:29:58;;;;;;;1.67;0.77;;;;;;;19.21;43.02;99844.00;3533923;40;20063;-53
2021/05/21 08:32:25;;;;;;;3.13;0.88;;;;;;;19.40;42.45;99845.25;3533378;40;20059;-51
2021/05/21 08:34:52;;;;;;;3.88;1.05;;;;;;;19.28;44.09;99835.19;3533465;40;20066;-56
2021/05/21 08:37:20;;;;;;;1.27;0.80;;;;;;;19.17;43.17;99826.78;3533244;40;20511;-52
2021/05/21 08:39:48;;;;;;;3.05;0.70;;;;;;;19.39;42.57;99832.31;3533546;40;20095;-51
2021/05/21 08:42:20;;;;;;;1.80;0.85;;;;;;;19.13;42.94;99832.94;3533327;40;20858;-53
2021/05/21 08:44:50;;;;;;;1.85;1.25;;;;;;;19.48;42.68;99826.91;3533671;40;20069;-52
2021/05/21 08:47:18;;;;;;;1.35;0.80;;;;;;;19.41;42.03;99821.00;3533129;40;20066;-58
2021/05/21 08:49:46;;;;;;;5.00;0.60;;;;;;;19.40;41.25;99832.28;3531122;40;20509;-49
2021/05/21 08:52:15;;;;;;;2.28;0.70;;;;;;;19.43;40.57;99821.84;3529287;40;20323;-55
2021/05/21 08:54:43;;;;;;;3.78;0.60;;;;;;;19.23;40.48;99822.31;3529970;40;20054;-54
2021/05/21 08:57:18;;;;;;;2.90;0.85;;;;;;;19.65;40.72;99822.19;3529630;40;20182;-55
2021/05/21 08:59:46;;;;;;;2.17;0.70;;;;;;;19.60;40.79;99811.06;3528952;40;20426;-52
2021/05/21 09:02:24;;;;;;;1.77;0.68;;;;;;;20.14;41.34;99796.63;3529615;40;20059;-56
2021/05/21 09:04:59;;;;;;;2.53;0.70;;;;;;;20.75;39.03;99808.75;3529429;40;20091;-54
2021/05/21 09:07:29;;;;;;;2.87;0.57;;;;;;;20.87;38.41;99809.25;3529417;40;20055;-54
2021/05/21 09:09:58;;;;;;;1.75;0.60;;;;;;;20.85;39.07;99809.31;3528878;40;20327;-53
2021/05/21 09:12:39;;;;;;;5.80;1.10;;;;;;;20.41;39.42;99801.03;3520169;40;20046;-50
2021/05/21 09:15:09;;;;;;;4.30;0.80;;;;;;;20.56;38.90;99799.78;3528832;40;20050;-56
2021/05/21 09:17:56;;;;;;;3.75;1.02;;;;;;;20.86;38.84;99787.59;3529997;40;20059;-52
2021/05/21 09:20:31;;;;;;;2.38;0.70;;;;;;;21.11;38.53;99790.28;3529633;40;20590;-53
2021/05/21 09:23:06;;;;;;;3.08;0.90;;;;;;;22.08;38.40;99798.28;3528959;40;20305;-52
2021/05/21 09:25:39;;;;;;;3.42;0.63;;;;;;;22.11;36.59;99779.94;3530226;40;20460;-51
2021/05/21 09:28:27;;;;;;;6.28;1.00;;;;;;;20.91;38.27;99783.09;3528879;40;20058;-55
2021/05/21 09:31:12;;;;;;;2.95;0.80;;;;;;;21.89;37.05;99773.78;3528527;40;20058;-56
2021/05/21 09:33:42;;;;;;;9.90;1.42;;;;;;;21.55;37.50;99773.22;3529506;40;20051;-53
2021/05/21 09:36:09;;;;;;;2.10;0.88;;;;;;;21.03;38.90;99774.03;3528965;40;20061;-55
2021/05/21 09:38:53;;;;;;;1.10;0.65;;;;;;;20.78;39.43;99767.00;3530367;40;20058;-50
2021/05/21 09:41:49;;;;;;;1.65;0.70;;;;;;;21.34;39.82;99771.31;3529468;40;20051;-55
2021/05/21 09:44:18;;;;;;;6.97;0.95;;;;;;;21.50;38.67;99769.06;3530049;40;20050;-56
2021/05/21 09:46:49;;;;;;;1.73;0.95;;;;;;;21.63;37.69;99765.16;3529103;40;20054;-52
2021/05/21 09:49:38;;;;;;;2.05;0.63;;;;;;;21.44;38.13;99769.25;3529429;40;20091;-57
2021/05/21 09:52:11;;;;;;;4.57;0.55;;;;;;;21.24;37.72;99764.69;3528666;40;20066;-55
2021/05/21 09:54:49;;;;;;;5.07;0.80;;;;;;;20.95;37.31;99781.25;3529694;40;20058;-53
2021/05/21 09:57:16;;;;;;;4.55;0.63;;;;;;;20.77;37.26;99759.25;3529690;40;20549;-50
2021/05/21 09:59:47;;;;;;;2.13;1.08;;;;;;;21.78;35.94;99764.59;3527822;40;20055;-53
2021/05/21 10:02:28;;;;;;;2.58;0.47;;;;;;;21.61;35.20;99762.56;3531178;40;20153;-53
2021/05/21 10:04:58;;;;;;;3.53;0.60;;;;;;;21.95;34.52;99750.09;3532310;40;20059;-52
2021/05/21 10:07:25;;;;;;;7.00;0.90;;;;;;;22.34;35.63;99755.66;3532300;40;20059;-51
2021/05/21 10:09:53;;;;;;;2.90;0.50;;;;;;;21.32;34.57;99757.53;3532554;40;20054;-55
2021/05/21 10:12:21;;;;;;;2.30;0.45;;;;;;;21.27;35.04;99754.19;3532302;40;20455;-56
2021/05/21 10:14:50;;;;;;;5.30;0.63;;;;;;;24.62;31.12;99753.88;3532477;40;20336;-49
2021/05/21 10:17:20;;;;;;;2.67;0.90;;;;;;;27.25;27.93;99765.50;3529000;40;20095;-55
2021/05/21 10:19:48;;;;;;;10.05;0.90;;;;;;;25.76;28.15;99755.25;3529294;40;20055;-54
2021/05/21 10:22:24;;;;;;;8.88;0.85;;;;;;;27.00;26.50;99763.41;3529432;40;20062;-55
2021/05/21 10:24:55;;;;;;;3.80;1.02;;;;;;;28.06;24.86;99760.69;3531237;40;20089;-52
2021/05/21 10:27:26;;;;;;;4.82;0.77;;;;;;;27.50;25.66;99754.38;3528091;40;20082;-54
2021/05/21 10:29:59;;;;;;;4.82;0.80;;;;;;;25.53;29.29;99758.19;3530688;40;20132;-52
2021/05/21 10:32:30;;;;;;;6.55;0.70;;;;;;;26.23;27.64;99756.28;3528392;40;20087;-51
2021/05/21 10:34:59;;;;;;;3.58;0.63;;;;;;;26.51;26.75;99745.16;3530873;40;20063;-55
2021/05/21 10:37:32;;;;;;;0.98;0.38;;;;;;;25.29;27.06;99741.94;3531801;40;20043;-53
2021/05/21 10:40:06;;;;;;;1.10;0.50;;;;;;;24.96;27.94;99734.78;3531163;40;20061;-53
2021/05/21 10:42:47;;;;;;;2.42;0.65;;;;;;;26.60;27.27;99737.59;3531947;40;20316;-51
2021/05/21 10:45:22;;;;;;;1.42;0.65;;;;;;;27.75;25.07;99744.13;3531609;40;20461;-55
2021/05/21 10:48:00;;;;;;;1.75;0.70;;;;;;;27.77;24.31;99723.81;3532305;40;20055;-52
2021/05/21 10:50:39;;;;;;;3.75;0.77;;;;;;;29.12;22.51;99729.31;3532353;40;20325;-51
2021/05/21 10:53:07;;;;;;;1.95;0.40;;;;;;;29.40;23.35;99732.72;3530638;40;20428;-58
2021/05/21 10:55:54;;;;;;;1.08;0.43;;;;;;;26.57;26.31;99727.25;3531866;40;20106;-57
2021/05/21 10:58:33;;;;;;;2.85;0.60;;;;;;;25.74;27.61;99724.75;3528778;40;20156;-53
2021/05/21 11:01:07;;;;;;;2.08;0.60;;;;;;;25.56;27.76;99727.41;3532384;40;20058;-56
2021/05/21 11:04:13;;;;;;;4.18;0.90;;;;;;;25.98;27.34;99702.50;3531951;40;20062;-55
2021/05/21 11:06:45;;;;;;;3.65;0.60;;;;;;;25.93;27.55;99708.91;3506296;40;20231;-55
2021/05/21 11:09:17;;;;;;;1.98;0.40;;;;;;;27.02;25.17;99696.69;3510602;40;20066;-57
2021/05/21 11:11:46;;;;;;;4.05;0.70;;;;;;;30.19;22.11;99713.19;3518917;40;20082;-56
2021/05/21 11:14:32;;;;;;;4.18;0.68;;;;;;;29.81;21.62;99713.19;3531819;40;20439;-55
2021/05/21 11:17:07;;;;;;;4.07;0.70;;;;;;;29.78;21.24;99697.59;3529215;40;20097;-55
2021/05/21 11:19:34;;;;;;;4.00;0.82;;;;;;;27.68;23.90;99696.25;3532138;40;20106;-55
2021/05/21 11:22:15;;;;;;;2.17;0.63;;;;;;;27.45;24.48;99690.69;3532354;40;20093;-56
2021/05/21 11:24:45;;;;;;;2.47;0.47;;;;;;;28.13;24.00;99698.81;3527475;40;20042;-57
2021/05/21 11:27:13;;;;;;;1.08;0.60;;;;;;;27.63;24.68;99684.31;3527467;40;20077;-57
2021/05/21 11:29:48;;;;;;;2.72;0.60;;;;;;;26.58;25.37;99675.63;3529018;40;20107;-54
2021/05/21 11:32:26;;;;;;;2.72;0.82;;;;;;;30.14;21.65;99695.03;3528361;40;20069;-56
2021/05/21 11:34:54;;;;;;;1.33;0.70;;;;;;;30.31;22.26;99692.94;3530653;40;20796;-56
2021/05/21 11:37:24;;;;;;;3.70;0.55;;;;;;;29.75;21.45;99692.53;3531804;40;20071;-54
2021/05/21 11:39:53;;;;;;;4.63;0.95;;;;;;;29.36;22.84;99689.88;3531929;40;20079;-55
2021/05/21 11:42:25;;;;;;;3.80;0.70;;;;;;;28.14;23.46;99692.59;3532165;40;20091;-55